createdAt,value
2022-10-13T00:01:21.216Z,3.31
2022-10-13T00:03:49.832Z,3.29
2022-10-13T00:06:26.983Z,3.28
2022-10-13T00:08:56.668Z,3.27
2022-10-13T00:11:28.587Z,3.26
2022-10-13T00:14:00.556Z,3.28
2022-10-13T00:16:33.128Z,3.31
2022-10-13T00:19:02.147Z,3.38
2022-10-13T00:21:30.579Z,3.43
2022-10-13T00:23:58.657Z,3.49
2022-10-13T00:26:27.333Z,3.57
2022-10-13T00:28:56.720Z,3.64
2022-10-13T00:31:27.893Z,3.71
2022-10-13T00:33:56.205Z,3.76
2022-10-13T00:36:25.250Z,3.81
2022-10-13T00:38:53.653Z,3.86
2022-10-13T00:41:22.040Z,3.88
2022-10-13T00:44:03.133Z,3.86
2022-10-13T00:46:32.299Z,3.81
2022-10-13T00:49:12.868Z,3.71
2022-10-13T00:51:46.862Z,3.56
2022-10-13T00:54:19.188Z,3.42
2022-10-13T00:56:48.491Z,3.30
2022-10-13T00:59:23.923Z,3.21
2022-10-13T01:01:55.513Z,3.15
2022-10-13T01:04:27.213Z,3.09
2022-10-13T01:06:56.753Z,3.04
2022-10-13T01:09:24.783Z,3.02
2022-10-13T01:12:15.200Z,2.99
2022-10-13T01:14:53.861Z,2.91
2022-10-13T01:17:30.887Z,2.84
2022-10-13T01:20:17.742Z,2.79
2022-10-13T01:23:21.409Z,2.77
2022-10-13T01:25:49.901Z,2.72
2022-10-13T01:28:34.331Z,2.69
2022-10-13T01:31:20.769Z,2.64
2022-10-13T01:34:08.703Z,2.59
2022-10-13T01:36:51.606Z,2.54
2022-10-13T01:39:34.979Z,2.51
2022-10-13T01:42:13.234Z,2.51
2022-10-13T01:44:48.741Z,2.53
2022-10-13T01:47:19.028Z,2.55
2022-10-13T01:49:50.912Z,2.56
2022-10-13T01:52:22.168Z,2.57
2022-10-13T01:54:54.327Z,2.54
2022-10-13T01:57:32.139Z,2.50
2022-10-13T02:00:04.203Z,2.47
2022-10-13T02:03:22.760Z,2.43
2022-10-13T02:06:04.655Z,2.37
2022-10-13T02:08:54.233Z,2.34
2022-10-13T02:11:23.414Z,2.35
2022-10-13T02:14:09.467Z,2.38
2022-10-13T02:16:42.298Z,2.43
2022-10-13T02:19:17.219Z,2.44
2022-10-13T02:21:46.896Z,2.46
2022-10-13T02:24:15.201Z,2.47
2022-10-13T02:26:43.724Z,2.49
2022-10-13T02:29:17.029Z,2.51
2022-10-13T02:31:46.272Z,2.55
2022-10-13T02:34:15.048Z,2.60
2022-10-13T02:36:46.364Z,2.67
2022-10-13T02:39:14.430Z,2.75
2022-10-13T02:41:42.564Z,2.83
2022-10-13T02:44:10.735Z,2.90
2022-10-13T02:46:47.575Z,2.99
2022-10-13T02:49:15.921Z,3.04
2022-10-13T02:51:44.022Z,3.09
2022-10-13T02:54:11.979Z,3.12
2022-10-13T02:56:40.369Z,3.15
2022-10-13T02:59:08.340Z,3.15
2022-10-13T03:01:41.314Z,3.13
2022-10-13T03:04:10.073Z,3.09
2022-10-13T03:06:38.613Z,3.04
2022-10-13T03:09:07.075Z,2.98
2022-10-13T03:11:35.452Z,2.92
2022-10-13T03:14:03.494Z,2.89
2022-10-13T03:16:31.622Z,2.83
2022-10-13T03:18:59.823Z,2.76
2022-10-13T03:21:27.785Z,2.73
2022-10-13T03:23:55.853Z,2.71
2022-10-13T03:26:24.174Z,2.70
2022-10-13T03:28:52.891Z,2.66
2022-10-13T03:31:21.211Z,2.65
2022-10-13T03:33:50.027Z,2.65
2022-10-13T03:36:18.427Z,2.64
2022-10-13T03:38:47.635Z,2.63
2022-10-13T03:41:17.929Z,2.63
2022-10-13T03:43:49.466Z,2.61
2022-10-13T03:46:19.119Z,2.59
2022-10-13T03:48:48.490Z,2.58
2022-10-13T03:51:20.731Z,2.55
2022-10-13T03:53:51.992Z,2.56
2022-10-13T03:56:23.850Z,2.59
2022-10-13T03:58:57.560Z,2.62
2022-10-13T04:01:29.296Z,2.69
2022-10-13T04:03:59.637Z,2.72
2022-10-13T04:06:28.084Z,2.76
2022-10-13T04:08:56.278Z,2.78
2022-10-13T04:11:24.924Z,2.79
2022-10-13T04:13:56.497Z,2.82
2022-10-13T04:16:27.572Z,2.84
2022-10-13T04:19:05.370Z,2.85
2022-10-13T04:21:35.719Z,2.86
2022-10-13T04:24:05.287Z,2.87
2022-10-13T04:26:35.728Z,2.89
2022-10-13T04:29:11.269Z,2.92
2022-10-13T04:31:42.802Z,2.95
2022-10-13T04:34:12.231Z,2.96
2022-10-13T04:36:40.540Z,2.98
2022-10-13T04:39:08.600Z,2.97
2022-10-13T04:41:36.768Z,2.95
2022-10-13T04:44:04.889Z,2.93
2022-10-13T04:46:32.807Z,2.92
2022-10-13T04:49:00.978Z,2.90
2022-10-13T04:51:33.546Z,2.90
2022-10-13T04:54:02.401Z,2.91
2022-10-13T04:56:30.407Z,2.91
2022-10-13T04:59:06.022Z,2.91
2022-10-13T05:01:36.000Z,2.88
2022-10-13T05:04:07.469Z,2.86
2022-10-13T05:06:58.817Z,2.85
2022-10-13T05:09:29.113Z,2.82
2022-10-13T05:11:57.419Z,2.80
2022-10-13T05:14:25.679Z,2.78
2022-10-13T05:16:53.801Z,2.76
2022-10-13T05:19:21.897Z,2.76
2022-10-13T05:21:50.624Z,2.75
2022-10-13T05:24:20.897Z,2.75
2022-10-13T05:26:50.795Z,2.74
2022-10-13T05:29:18.982Z,2.73
2022-10-13T05:31:47.421Z,2.71
2022-10-13T05:34:15.554Z,2.73
2022-10-13T05:36:43.562Z,2.73
2022-10-13T05:39:11.675Z,2.77
2022-10-13T05:41:40.501Z,2.83
2022-10-13T05:44:14.882Z,2.89
2022-10-13T05:46:51.853Z,2.98
2022-10-13T05:49:20.373Z,3.05
2022-10-13T05:51:52.494Z,3.12
2022-10-13T05:54:30.985Z,3.20
2022-10-13T05:57:08.143Z,3.31
2022-10-13T05:59:41.851Z,3.44
2022-10-13T06:02:14.849Z,3.57
2022-10-13T06:04:49.244Z,3.70
2022-10-13T06:07:17.597Z,3.84
2022-10-13T06:09:46.029Z,3.98
2022-10-13T06:12:14.090Z,4.12
2022-10-13T06:14:43.133Z,4.24
2022-10-13T06:17:12.985Z,4.36
2022-10-13T06:19:45.503Z,4.49
2022-10-13T06:22:13.517Z,4.61
2022-10-13T06:24:41.566Z,4.74
2022-10-13T06:27:10.979Z,4.87
2022-10-13T06:29:39.128Z,5.02
2022-10-13T06:32:07.360Z,5.18
2022-10-13T06:34:35.618Z,5.33
2022-10-13T06:37:03.676Z,5.44
2022-10-13T06:39:31.834Z,5.55
2022-10-13T06:42:02.068Z,5.66
2022-10-13T06:44:37.467Z,5.77
2022-10-13T06:47:05.721Z,5.90
2022-10-13T06:49:33.871Z,6.02
2022-10-13T06:52:02.028Z,6.16
2022-10-13T06:54:30.697Z,6.31
2022-10-13T06:56:58.760Z,6.47
2022-10-13T06:59:27.853Z,6.60
2022-10-13T07:01:55.995Z,6.73
2022-10-13T07:04:25.914Z,6.86
2022-10-13T07:06:56.525Z,6.97
2022-10-13T07:09:24.558Z,7.07
2022-10-13T07:11:52.844Z,7.17
2022-10-13T07:14:21.049Z,7.25
2022-10-13T07:16:49.229Z,7.36
2022-10-13T07:19:17.199Z,7.48
2022-10-13T07:21:45.357Z,7.63
2022-10-13T07:24:13.347Z,7.73
2022-10-13T07:26:41.306Z,7.83
2022-10-13T07:29:10.055Z,7.93
2022-10-13T07:31:38.106Z,8.05
2022-10-13T07:34:06.802Z,8.16
2022-10-13T07:36:35.626Z,8.28
2022-10-13T07:39:03.836Z,8.41
2022-10-13T07:41:32.372Z,8.55
2022-10-13T07:44:00.519Z,8.72
2022-10-13T07:46:29.921Z,8.86
2022-10-13T07:48:58.219Z,8.98
2022-10-13T07:51:26.572Z,9.07
2022-10-13T07:53:54.587Z,9.16
2022-10-13T07:56:22.557Z,9.24
2022-10-13T07:58:50.829Z,9.32
2022-10-13T08:01:18.885Z,9.39
2022-10-13T08:03:50.081Z,9.47
2022-10-13T08:06:19.761Z,9.58
2022-10-13T08:08:48.794Z,9.72
2022-10-13T08:11:18.131Z,9.85
2022-10-13T08:13:51.449Z,10.00
2022-10-13T08:16:23.061Z,10.12
2022-10-13T08:18:51.367Z,10.23
2022-10-13T08:24:13.982Z,10.40
2022-10-13T08:26:43.258Z,10.48
2022-10-13T08:29:28.135Z,10.55
2022-10-13T08:31:56.442Z,10.64
2022-10-13T08:34:25.172Z,10.73
2022-10-13T08:36:56.226Z,10.86
2022-10-13T08:39:25.396Z,10.97
2022-10-13T08:41:57.389Z,11.06
2022-10-13T08:45:35.817Z,11.15
2022-10-13T08:48:10.617Z,11.23
2022-10-13T08:50:43.327Z,11.33
2022-10-13T08:53:26.020Z,11.43
2022-10-13T08:56:09.778Z,11.49
2022-10-13T08:58:40.920Z,11.58
2022-10-13T09:01:24.516Z,11.67
2022-10-13T09:04:11.056Z,11.76
2022-10-13T09:06:47.082Z,11.82
2022-10-13T09:09:16.501Z,11.85
2022-10-13T09:11:48.137Z,11.88
2022-10-13T09:14:24.178Z,11.93
2022-10-13T09:16:53.477Z,11.96
2022-10-13T09:19:26.631Z,12.03
2022-10-13T09:22:14.428Z,12.11
2022-10-13T09:24:42.371Z,12.23
2022-10-13T09:27:17.655Z,12.33
2022-10-13T09:29:45.671Z,12.42
2022-10-13T09:32:21.264Z,12.51
2022-10-13T09:34:50.550Z,12.57
2022-10-13T09:37:26.474Z,12.61
2022-10-13T09:40:20.485Z,12.68
2022-10-13T09:42:54.118Z,12.69
2022-10-13T09:45:25.435Z,12.72
2022-10-13T09:47:57.659Z,12.76
2022-10-13T09:50:34.962Z,12.82
2022-10-13T09:53:12.290Z,12.89
2022-10-13T09:55:40.298Z,12.94
2022-10-13T09:58:21.218Z,13.03
2022-10-13T10:00:52.040Z,13.12
2022-10-13T10:03:26.259Z,13.16
2022-10-13T10:05:57.826Z,13.18
2022-10-13T10:09:01.677Z,13.23
2022-10-13T10:11:37.971Z,13.32
2022-10-13T10:14:38.127Z,13.36
2022-10-13T10:17:09.663Z,13.38
2022-10-13T10:20:08.003Z,13.42
2022-10-13T10:22:47.856Z,13.50
2022-10-13T10:25:34.413Z,13.57
2022-10-13T10:28:12.832Z,13.66
2022-10-13T10:30:48.807Z,13.64
2022-10-13T10:33:47.591Z,13.66
2022-10-13T10:36:22.606Z,13.72
2022-10-13T10:38:54.585Z,13.74
2022-10-13T10:41:49.746Z,13.78
2022-10-13T10:44:23.865Z,13.83
2022-10-13T10:46:59.551Z,13.86
2022-10-13T10:49:32.342Z,13.89
2022-10-13T10:52:02.779Z,13.87
2022-10-13T10:54:51.980Z,13.88
2022-10-13T10:57:25.495Z,13.94
2022-10-13T11:00:15.759Z,14.00
2022-10-13T11:02:48.620Z,14.06
2022-10-13T11:05:16.954Z,14.10
2022-10-13T11:07:51.610Z,14.09
2022-10-13T11:10:21.557Z,14.10
2022-10-13T11:12:53.298Z,14.13
2022-10-13T11:15:26.521Z,14.19
2022-10-13T11:17:54.982Z,14.22
2022-10-13T11:20:25.127Z,14.27
2022-10-13T11:22:59.533Z,14.36
2022-10-13T11:25:47.025Z,14.39
2022-10-13T11:28:21.653Z,14.41
2022-10-13T11:30:52.121Z,14.42
2022-10-13T11:33:39.499Z,14.46
2022-10-13T11:36:32.247Z,14.50
2022-10-13T11:39:12.093Z,14.52
2022-10-13T11:41:58.536Z,14.51
2022-10-13T11:44:36.146Z,14.51
2022-10-13T11:47:38.585Z,14.54
2022-10-13T11:50:34.279Z,14.56
2022-10-13T11:53:19.046Z,14.58
2022-10-13T11:55:56.600Z,14.58
2022-10-13T11:58:28.015Z,14.57
2022-10-13T12:01:00.454Z,14.59
2022-10-13T12:03:36.706Z,14.60
2022-10-13T12:06:17.051Z,14.64
2022-10-13T12:08:52.018Z,14.68
2022-10-13T12:11:28.157Z,14.70
2022-10-13T12:13:57.214Z,14.68
2022-10-13T12:16:26.699Z,14.66
2022-10-13T12:19:07.258Z,14.65
2022-10-13T12:21:48.228Z,14.64
2022-10-13T12:24:16.402Z,14.66
2022-10-13T12:26:44.829Z,14.71
2022-10-13T12:29:15.199Z,14.73
2022-10-13T12:31:47.008Z,14.73
2022-10-13T12:34:24.535Z,14.73
2022-10-13T12:37:00.104Z,14.72
2022-10-13T12:39:30.837Z,14.72
2022-10-13T12:42:00.960Z,14.71
2022-10-13T12:44:32.391Z,14.70
2022-10-13T12:47:03.921Z,14.70
2022-10-13T12:49:35.516Z,14.68
2022-10-13T12:52:06.193Z,14.65
2022-10-13T12:54:38.313Z,14.62
2022-10-13T12:57:21.959Z,14.60
2022-10-13T12:59:50.021Z,14.60
2022-10-13T13:02:26.650Z,14.60
2022-10-13T13:04:55.478Z,14.61
2022-10-13T13:07:37.155Z,14.59
2022-10-13T13:10:08.120Z,14.60
2022-10-13T13:12:36.931Z,14.59
2022-10-13T13:15:27.404Z,14.57
2022-10-13T13:18:15.755Z,14.57
2022-10-13T13:20:44.068Z,14.55
2022-10-13T13:23:12.049Z,14.56
2022-10-13T13:25:40.013Z,14.58
2022-10-13T13:28:13.655Z,14.58
2022-10-13T13:30:42.352Z,14.56
2022-10-13T13:35:45.135Z,14.51
2022-10-13T13:38:13.283Z,14.46
2022-10-13T13:40:41.266Z,14.43
2022-10-13T13:43:13.453Z,14.39
2022-10-13T13:45:41.656Z,14.35
2022-10-13T13:48:12.499Z,14.32
2022-10-13T13:50:40.518Z,14.29
2022-10-13T13:53:09.585Z,14.23
2022-10-13T13:55:38.021Z,14.20
2022-10-13T13:58:06.718Z,14.18
2022-10-13T14:00:34.844Z,14.14
2022-10-13T14:03:02.912Z,14.09
2022-10-13T14:05:31.092Z,14.05
2022-10-13T14:07:59.448Z,14.03
2022-10-13T14:10:27.525Z,13.98
2022-10-13T14:12:55.672Z,13.93
2022-10-13T14:15:28.796Z,13.89
2022-10-13T14:17:58.073Z,13.82
2022-10-13T14:20:26.316Z,13.78
2022-10-13T14:22:54.757Z,13.74
2022-10-13T14:25:23.246Z,13.69
2022-10-13T14:27:51.383Z,13.62
2022-10-13T14:30:19.518Z,13.57
2022-10-13T14:32:47.562Z,13.52
2022-10-13T14:35:15.640Z,13.49
2022-10-13T14:37:43.622Z,13.45
2022-10-13T14:40:11.707Z,13.41
2022-10-13T14:42:42.416Z,13.36
2022-10-13T14:45:13.234Z,13.31
2022-10-13T14:47:41.953Z,13.27
2022-10-13T14:50:10.667Z,13.22
2022-10-13T14:52:38.845Z,13.20
2022-10-13T14:55:07.448Z,13.14
2022-10-13T14:57:37.134Z,13.07
2022-10-13T15:00:06.104Z,12.99
2022-10-13T15:02:34.412Z,12.93
2022-10-13T15:05:02.732Z,12.87
2022-10-13T15:07:31.178Z,12.81
2022-10-13T15:10:06.836Z,12.77
2022-10-13T15:12:35.098Z,12.71
2022-10-13T15:15:03.990Z,12.65
2022-10-13T15:17:33.896Z,12.56
2022-10-13T15:20:02.146Z,12.50
2022-10-13T15:22:30.610Z,12.42
2022-10-13T15:24:58.565Z,12.35
2022-10-13T15:27:26.541Z,12.28
2022-10-13T15:29:54.505Z,12.20
2022-10-13T15:32:22.668Z,12.11
2022-10-13T15:34:52.511Z,12.03
2022-10-13T15:37:20.502Z,11.94
2022-10-13T15:39:51.956Z,11.84
2022-10-13T15:42:23.106Z,11.72
2022-10-13T15:45:08.737Z,11.61
2022-10-13T15:47:38.312Z,11.48
2022-10-13T15:50:06.955Z,11.38
2022-10-13T15:52:40.180Z,11.30
2022-10-13T15:55:11.279Z,11.24
2022-10-13T15:57:39.279Z,11.17
2022-10-13T16:00:09.208Z,11.09
2022-10-13T16:02:44.223Z,10.98
2022-10-13T16:05:13.247Z,10.86
2022-10-13T16:07:42.007Z,10.77
2022-10-13T16:10:12.366Z,10.66
2022-10-13T16:12:45.457Z,10.59
2022-10-13T16:15:18.098Z,10.52
2022-10-13T16:17:46.667Z,10.45
2022-10-13T16:20:14.884Z,10.40
2022-10-13T16:22:43.179Z,10.37
2022-10-13T16:25:12.120Z,10.34
2022-10-13T16:27:44.013Z,10.29
2022-10-13T16:30:13.277Z,10.24
2022-10-13T16:32:41.699Z,10.17
2022-10-13T16:35:10.010Z,10.11
2022-10-13T16:37:38.623Z,10.08
2022-10-13T16:40:07.095Z,10.05
2022-10-13T16:42:36.397Z,10.05
2022-10-13T16:45:05.158Z,10.06
2022-10-13T16:47:33.138Z,10.06
2022-10-13T16:50:01.132Z,10.06
2022-10-13T16:52:29.639Z,10.05
2022-10-13T16:54:57.587Z,10.04
2022-10-13T16:57:25.935Z,10.01
2022-10-13T16:59:54.254Z,9.97
2022-10-13T17:02:22.257Z,9.92
2022-10-13T17:04:50.168Z,9.87
2022-10-13T17:07:18.670Z,9.84
2022-10-13T17:09:47.370Z,9.83
2022-10-13T17:12:15.433Z,9.81
2022-10-13T17:14:43.628Z,9.80
2022-10-13T17:17:11.552Z,9.80
2022-10-13T17:19:39.575Z,9.80
2022-10-13T17:22:07.695Z,9.78
2022-10-13T17:24:35.821Z,9.77
2022-10-13T17:27:03.906Z,9.76
2022-10-13T17:29:32.841Z,9.74
2022-10-13T17:32:01.567Z,9.72
2022-10-13T17:34:29.589Z,9.68
2022-10-13T17:37:00.674Z,9.66
2022-10-13T17:39:28.861Z,9.66
2022-10-13T17:41:57.239Z,9.68
2022-10-13T17:44:25.436Z,9.69
2022-10-13T17:46:53.429Z,9.69
2022-10-13T17:49:21.378Z,9.71
2022-10-13T17:51:52.608Z,9.73
2022-10-13T17:54:21.343Z,9.74
2022-10-13T17:56:49.662Z,9.74
2022-10-13T17:59:18.564Z,9.73
2022-10-13T18:01:46.700Z,9.71
2022-10-13T18:04:18.102Z,9.70
2022-10-13T18:06:46.588Z,9.67
2022-10-13T18:09:20.764Z,9.67
2022-10-13T18:11:51.198Z,9.66
2022-10-13T18:14:21.073Z,9.67
2022-10-13T18:16:51.127Z,9.68
2022-10-13T18:19:19.407Z,9.68
2022-10-13T18:21:47.460Z,9.67
2022-10-13T18:24:16.005Z,9.65
2022-10-13T18:26:44.353Z,9.63
2022-10-13T18:29:12.934Z,9.61
2022-10-13T18:31:41.703Z,9.58
2022-10-13T18:34:17.295Z,9.56
2022-10-13T18:36:47.776Z,9.52
2022-10-13T18:39:25.096Z,9.49
2022-10-13T18:41:54.828Z,9.47
2022-10-13T18:44:24.235Z,9.45
2022-10-13T18:46:54.966Z,9.43
2022-10-13T18:49:30.926Z,9.41
2022-10-13T18:52:01.011Z,9.39
2022-10-13T18:54:30.239Z,9.37
2022-10-13T18:56:58.824Z,9.32
2022-10-13T18:59:27.456Z,9.29
2022-10-13T19:01:56.142Z,9.26
2022-10-13T19:04:26.533Z,9.23
2022-10-13T19:06:55.667Z,9.24
2022-10-13T19:09:26.742Z,9.23
2022-10-13T19:11:57.170Z,9.23
2022-10-13T19:14:27.659Z,9.23
2022-10-13T19:17:01.620Z,9.23
2022-10-13T19:19:32.212Z,9.22
2022-10-13T19:22:02.764Z,9.20
2022-10-13T19:24:32.095Z,9.17
2022-10-13T19:27:00.878Z,9.14
2022-10-13T19:29:30.833Z,9.11
2022-10-13T19:31:59.987Z,9.10
2022-10-13T19:34:28.389Z,9.08
2022-10-13T19:37:00.090Z,9.06
2022-10-13T19:39:29.162Z,9.06
2022-10-13T19:41:58.135Z,9.05
2022-10-13T19:44:26.237Z,9.05
2022-10-13T19:46:55.159Z,9.04
2022-10-13T19:49:26.606Z,9.04
2022-10-13T19:51:55.990Z,9.02
2022-10-13T19:54:24.492Z,9.02
2022-10-13T19:56:52.687Z,9.03
2022-10-13T19:59:21.021Z,9.02
2022-10-13T20:01:49.175Z,9.03
2022-10-13T20:04:18.659Z,9.03
2022-10-13T20:06:48.153Z,9.04
2022-10-13T20:09:17.533Z,9.06
2022-10-13T20:11:46.932Z,9.08
2022-10-13T20:14:16.172Z,9.10
2022-10-13T20:16:44.938Z,9.11
2022-10-13T20:19:16.423Z,9.13
2022-10-13T20:21:47.997Z,9.15
2022-10-13T20:24:16.111Z,9.16
2022-10-13T20:26:44.144Z,9.18
2022-10-13T20:29:12.670Z,9.21
2022-10-13T20:31:41.523Z,9.23
2022-10-13T20:34:10.251Z,9.24
2022-10-13T20:36:39.233Z,9.25
2022-10-13T20:39:09.113Z,9.24
2022-10-13T20:41:37.566Z,9.23
2022-10-13T20:44:06.175Z,9.22
2022-10-13T20:46:34.787Z,9.20
2022-10-13T20:49:12.547Z,9.18
2022-10-13T20:51:42.778Z,9.18
2022-10-13T20:54:13.898Z,9.20
2022-10-13T20:56:43.143Z,9.21
2022-10-13T20:59:14.900Z,9.25
2022-10-13T21:01:43.584Z,9.29
2022-10-13T21:04:12.102Z,9.31
2022-10-13T21:06:41.616Z,9.34
2022-10-13T21:09:11.016Z,9.35
2022-10-13T21:11:40.557Z,9.36
2022-10-13T21:14:09.973Z,9.38
2022-10-13T21:16:40.689Z,9.41
2022-10-13T21:19:12.840Z,9.44
2022-10-13T21:21:41.199Z,9.47
2022-10-13T21:24:10.846Z,9.50
2022-10-13T21:26:40.095Z,9.52
2022-10-13T21:29:11.728Z,9.52
2022-10-13T21:31:39.728Z,9.53
2022-10-13T21:34:07.907Z,9.53
2022-10-13T21:36:36.035Z,9.51
2022-10-13T21:39:05.797Z,9.49
2022-10-13T21:41:34.570Z,9.47
2022-10-13T21:44:03.625Z,9.45
2022-10-13T21:46:34.850Z,9.44
2022-10-13T21:49:05.550Z,9.44
2022-10-13T21:51:36.606Z,9.44
2022-10-13T21:54:13.019Z,9.45
2022-10-13T21:56:42.246Z,9.45
2022-10-13T21:59:12.448Z,9.46
2022-10-13T22:01:41.784Z,9.45
2022-10-13T22:04:14.774Z,9.44
2022-10-13T22:06:43.489Z,9.40
2022-10-13T22:09:11.588Z,9.36
2022-10-13T22:11:40.644Z,9.30
2022-10-13T22:14:14.511Z,9.25
2022-10-13T22:16:45.786Z,9.22
2022-10-13T22:19:15.175Z,9.20
2022-10-13T22:21:45.937Z,9.18
2022-10-13T22:24:18.357Z,9.15
2022-10-13T22:26:48.513Z,9.12
2022-10-13T22:29:20.244Z,9.09
2022-10-13T22:31:50.617Z,9.03
2022-10-13T22:34:18.681Z,9.00
2022-10-13T22:36:46.739Z,8.96
2022-10-13T22:39:15.278Z,8.94
2022-10-13T22:41:43.311Z,8.91
2022-10-13T22:44:11.415Z,8.88
2022-10-13T22:46:40.408Z,8.86
2022-10-13T22:49:13.454Z,8.84
2022-10-13T22:51:42.080Z,8.84
2022-10-13T22:54:10.616Z,8.84
2022-10-13T22:56:40.883Z,8.82
2022-10-13T22:59:09.793Z,8.80
2022-10-13T23:01:37.808Z,8.77
2022-10-13T23:04:05.910Z,8.74
2022-10-13T23:06:35.517Z,8.73
2022-10-13T23:09:05.839Z,8.70
2022-10-13T23:11:34.814Z,8.67
2022-10-13T23:14:04.799Z,8.65
2022-10-13T23:16:33.843Z,8.62
2022-10-13T23:19:02.595Z,8.58
2022-10-13T23:21:31.370Z,8.51
2022-10-13T23:24:05.608Z,8.46
2022-10-13T23:26:34.739Z,8.46
2022-10-13T23:29:04.822Z,8.46
2022-10-13T23:31:33.824Z,8.47
2022-10-13T23:34:02.168Z,8.46
2022-10-13T23:36:32.706Z,8.42
2022-10-13T23:39:04.884Z,8.39
2022-10-13T23:41:35.062Z,8.37
2022-10-13T23:44:03.555Z,8.34
2022-10-13T23:46:31.846Z,8.27
2022-10-13T23:49:00.034Z,8.21
2022-10-13T23:51:28.189Z,8.19
2022-10-13T23:53:57.008Z,8.18
2022-10-13T23:56:25.474Z,8.16
2022-10-13T23:58:53.530Z,8.16
